Terminal Aerodrome Forecast
Issued by NWS Lake Charles, LA

Home | Current Version | Previous Version | Text Only | Print | Product List | Glossary On
Versions: 1 2 3 4 5 6 7 8 9 10 11 12 13 14
000
FTUS44 KLCH 190800 AAA
TAFLCH
TAF AMD
KLCH 190803Z 1908/2006 02008KT 5SM -RA BR VCTS OVC007CB
     FM191700 05007KT 5SM -RA BR OVC007
     FM200300 03010KT 2SM BR OVC004=

USA.gov is the U.S. government's official web portal to all federal, state and local government web resources and services.